sensor_id;sensor_type;location;lat;lon;timestamp;P1;durP1;ratioP1;P2;durP2;ratioP2
10963;SDS011;5534;48.784;9.190;2023-03-03T00:01:02;24.83;;;15.07;;
10963;SDS011;5534;48.784;9.190;2023-03-03T00:03:28;27.40;;;15.37;;
10963;SDS011;5534;48.784;9.190;2023-03-03T00:05:54;26.13;;;15.57;;
10963;SDS011;5534;48.784;9.190;2023-03-03T00:08:20;27.33;;;14.80;;
10963;SDS011;5534;48.784;9.190;2023-03-03T00:10:46;24.73;;;15.33;;
10963;SDS011;5534;48.784;9.190;2023-03-03T00:13:21;26.00;;;15.27;;
10963;SDS011;5534;48.784;9.190;2023-03-03T00:15:48;28.77;;;15.37;;
10963;SDS011;5534;48.784;9.190;2023-03-03T00:20:52;28.73;;;15.20;;
10963;SDS011;5534;48.784;9.190;2023-03-03T00:23:27;29.63;;;16.33;;
10963;SDS011;5534;48.784;9.190;2023-03-03T00:25:54;27.20;;;15.07;;
10963;SDS011;5534;48.784;9.190;2023-03-03T00:28:22;28.07;;;14.40;;
10963;SDS011;5534;48.784;9.190;2023-03-03T00:30:54;27.83;;;15.60;;
10963;SDS011;5534;48.784;9.190;2023-03-03T00:33:32;29.00;;;15.67;;
10963;SDS011;5534;48.784;9.190;2023-03-03T00:39:18;30.37;;;15.97;;
10963;SDS011;5534;48.784;9.190;2023-03-03T00:41:46;32.70;;;15.83;;
10963;SDS011;5534;48.784;9.190;2023-03-03T00:52:30;32.63;;;15.83;;
10963;SDS011;5534;48.784;9.190;2023-03-03T00:55:18;28.77;;;16.53;;
10963;SDS011;5534;48.784;9.190;2023-03-03T00:57:43;29.87;;;16.90;;
10963;SDS011;5534;48.784;9.190;2023-03-03T01:00:10;27.60;;;14.93;;
10963;SDS011;5534;48.784;9.190;2023-03-03T01:02:39;29.50;;;15.73;;
10963;SDS011;5534;48.784;9.190;2023-03-03T01:05:09;28.83;;;15.97;;
10963;SDS011;5534;48.784;9.190;2023-03-03T01:07:38;27.60;;;15.33;;
10963;SDS011;5534;48.784;9.190;2023-03-03T01:10:06;26.03;;;15.63;;
10963;SDS011;5534;48.784;9.190;2023-03-03T01:12:32;26.37;;;15.40;;
10963;SDS011;5534;48.784;9.190;2023-03-03T01:15:03;30.60;;;16.87;;
10963;SDS011;5534;48.784;9.190;2023-03-03T01:17:34;27.47;;;15.50;;
10963;SDS011;5534;48.784;9.190;2023-03-03T01:20:01;27.97;;;15.23;;
10963;SDS011;5534;48.784;9.190;2023-03-03T01:22:27;28.43;;;16.57;;
10963;SDS011;5534;48.784;9.190;2023-03-03T01:24:53;34.57;;;16.60;;
10963;SDS011;5534;48.784;9.190;2023-03-03T01:27:18;29.53;;;15.67;;
10963;SDS011;5534;48.784;9.190;2023-03-03T01:29:44;28.30;;;15.83;;
10963;SDS011;5534;48.784;9.190;2023-03-03T01:32:10;27.73;;;16.17;;
10963;SDS011;5534;48.784;9.190;2023-03-03T01:34:35;28.07;;;15.97;;
10963;SDS011;5534;48.784;9.190;2023-03-03T01:37:01;26.63;;;15.47;;
10963;SDS011;5534;48.784;9.190;2023-03-03T01:39:27;27.47;;;15.33;;
10963;SDS011;5534;48.784;9.190;2023-03-03T01:41:52;29.77;;;15.60;;
10963;SDS011;5534;48.784;9.190;2023-03-03T01:44:18;27.27;;;15.50;;
10963;SDS011;5534;48.784;9.190;2023-03-03T01:49:35;27.93;;;15.87;;
10963;SDS011;5534;48.784;9.190;2023-03-03T01:52:25;27.50;;;15.43;;
10963;SDS011;5534;48.784;9.190;2023-03-03T01:54:59;32.13;;;16.43;;
10963;SDS011;5534;48.784;9.190;2023-03-03T01:57:32;27.10;;;16.13;;
10963;SDS011;5534;48.784;9.190;2023-03-03T02:00:02;23.13;;;14.27;;
10963;SDS011;5534;48.784;9.190;2023-03-03T02:02:30;28.03;;;15.53;;
10963;SDS011;5534;48.784;9.190;2023-03-03T02:04:56;27.57;;;16.27;;
10963;SDS011;5534;48.784;9.190;2023-03-03T02:07:22;27.60;;;15.43;;
10963;SDS011;5534;48.784;9.190;2023-03-03T02:12:35;28.33;;;15.60;;
10963;SDS011;5534;48.784;9.190;2023-03-03T02:15:24;31.50;;;16.13;;
10963;SDS011;5534;48.784;9.190;2023-03-03T02:17:58;26.67;;;16.57;;
10963;SDS011;5534;48.784;9.190;2023-03-03T02:20:45;29.27;;;16.97;;
10963;SDS011;5534;48.784;9.190;2023-03-03T02:23:37;30.37;;;17.03;;
10963;SDS011;5534;48.784;9.190;2023-03-03T02:29:01;32.17;;;15.50;;
10963;SDS011;5534;48.784;9.190;2023-03-03T02:31:28;25.87;;;15.70;;
10963;SDS011;5534;48.784;9.190;2023-03-03T02:33:54;27.20;;;15.77;;
10963;SDS011;5534;48.784;9.190;2023-03-03T02:46:42;28.13;;;15.27;;
10963;SDS011;5534;48.784;9.190;2023-03-03T02:49:10;27.17;;;15.37;;
10963;SDS011;5534;48.784;9.190;2023-03-03T02:51:41;26.57;;;16.00;;
10963;SDS011;5534;48.784;9.190;2023-03-03T02:54:08;29.97;;;17.13;;
10963;SDS011;5534;48.784;9.190;2023-03-03T02:56:35;33.47;;;16.70;;
10963;SDS011;5534;48.784;9.190;2023-03-03T02:59:01;29.73;;;16.60;;
10963;SDS011;5534;48.784;9.190;2023-03-03T03:01:28;32.37;;;17.63;;
10963;SDS011;5534;48.784;9.190;2023-03-03T03:03:56;30.80;;;16.80;;
10963;SDS011;5534;48.784;9.190;2023-03-03T03:06:22;30.50;;;16.77;;
10963;SDS011;5534;48.784;9.190;2023-03-03T03:08:48;26.07;;;15.43;;
10963;SDS011;5534;48.784;9.190;2023-03-03T03:11:14;29.03;;;16.10;;
10963;SDS011;5534;48.784;9.190;2023-03-03T03:13:40;27.27;;;15.00;;
10963;SDS011;5534;48.784;9.190;2023-03-03T03:16:05;29.33;;;16.30;;
10963;SDS011;5534;48.784;9.190;2023-03-03T03:18:31;27.63;;;16.00;;
10963;SDS011;5534;48.784;9.190;2023-03-03T03:21:04;30.47;;;16.47;;
10963;SDS011;5534;48.784;9.190;2023-03-03T03:23:31;28.47;;;15.80;;
10963;SDS011;5534;48.784;9.190;2023-03-03T03:25:58;29.43;;;15.57;;
10963;SDS011;5534;48.784;9.190;2023-03-03T03:28:24;28.67;;;15.37;;
10963;SDS011;5534;48.784;9.190;2023-03-03T03:30:50;28.07;;;15.80;;
10963;SDS011;5534;48.784;9.190;2023-03-03T03:33:16;28.80;;;15.73;;
10963;SDS011;5534;48.784;9.190;2023-03-03T03:35:41;26.20;;;15.00;;
10963;SDS011;5534;48.784;9.190;2023-03-03T03:38:11;29.67;;;15.80;;
10963;SDS011;5534;48.784;9.190;2023-03-03T03:40:38;29.43;;;16.07;;
10963;SDS011;5534;48.784;9.190;2023-03-03T03:43:04;30.10;;;16.33;;
10963;SDS011;5534;48.784;9.190;2023-03-03T03:45:30;26.53;;;15.33;;
10963;SDS011;5534;48.784;9.190;2023-03-03T03:47:57;30.57;;;16.87;;
10963;SDS011;5534;48.784;9.190;2023-03-03T03:50:22;25.80;;;15.80;;
10963;SDS011;5534;48.784;9.190;2023-03-03T03:52:48;30.20;;;17.53;;
10963;SDS011;5534;48.784;9.190;2023-03-03T03:55:14;29.00;;;15.47;;
10963;SDS011;5534;48.784;9.190;2023-03-03T03:57:40;26.67;;;15.03;;
10963;SDS011;5534;48.784;9.190;2023-03-03T04:00:07;29.47;;;16.30;;
10963;SDS011;5534;48.784;9.190;2023-03-03T04:02:34;32.57;;;18.30;;
10963;SDS011;5534;48.784;9.190;2023-03-03T04:05:00;34.00;;;18.17;;
10963;SDS011;5534;48.784;9.190;2023-03-03T04:07:26;31.73;;;18.10;;
10963;SDS011;5534;48.784;9.190;2023-03-03T04:09:52;35.00;;;18.37;;
10963;SDS011;5534;48.784;9.190;2023-03-03T04:12:18;29.33;;;17.83;;
10963;SDS011;5534;48.784;9.190;2023-03-03T04:14:44;33.20;;;19.07;;
10963;SDS011;5534;48.784;9.190;2023-03-03T04:17:30;30.47;;;17.10;;
10963;SDS011;5534;48.784;9.190;2023-03-03T04:19:55;33.53;;;19.67;;
10963;SDS011;5534;48.784;9.190;2023-03-03T04:22:24;33.07;;;19.13;;
10963;SDS011;5534;48.784;9.190;2023-03-03T04:24:50;35.43;;;18.73;;
10963;SDS011;5534;48.784;9.190;2023-03-03T04:27:16;34.07;;;18.43;;
10963;SDS011;5534;48.784;9.190;2023-03-03T04:29:41;36.60;;;18.20;;
10963;SDS011;5534;48.784;9.190;2023-03-03T04:32:07;36.77;;;18.80;;
10963;SDS011;5534;48.784;9.190;2023-03-03T04:34:33;33.20;;;18.80;;
10963;SDS011;5534;48.784;9.190;2023-03-03T04:36:59;30.83;;;17.80;;
10963;SDS011;5534;48.784;9.190;2023-03-03T04:39:26;37.97;;;19.47;;
10963;SDS011;5534;48.784;9.190;2023-03-03T04:41:53;32.27;;;19.10;;
10963;SDS011;5534;48.784;9.190;2023-03-03T04:44:18;36.03;;;20.13;;
10963;SDS011;5534;48.784;9.190;2023-03-03T04:46:44;35.27;;;19.13;;
10963;SDS011;5534;48.784;9.190;2023-03-03T04:49:10;35.80;;;19.03;;
10963;SDS011;5534;48.784;9.190;2023-03-03T04:51:36;34.77;;;18.87;;
10963;SDS011;5534;48.784;9.190;2023-03-03T04:54:02;33.53;;;19.43;;
10963;SDS011;5534;48.784;9.190;2023-03-03T04:56:29;33.70;;;19.27;;
10963;SDS011;5534;48.784;9.190;2023-03-03T04:58:55;35.40;;;20.33;;
10963;SDS011;5534;48.784;9.190;2023-03-03T05:01:24;34.77;;;19.83;;
10963;SDS011;5534;48.784;9.190;2023-03-03T05:03:50;37.23;;;20.37;;
10963;SDS011;5534;48.784;9.190;2023-03-03T05:06:15;35.87;;;19.07;;
10963;SDS011;5534;48.784;9.190;2023-03-03T05:08:43;33.17;;;18.10;;
10963;SDS011;5534;48.784;9.190;2023-03-03T05:11:09;33.53;;;18.50;;
10963;SDS011;5534;48.784;9.190;2023-03-03T05:13:35;37.33;;;18.40;;
10963;SDS011;5534;48.784;9.190;2023-03-03T05:16:01;34.03;;;19.50;;
10963;SDS011;5534;48.784;9.190;2023-03-03T05:18:28;33.57;;;18.30;;
10963;SDS011;5534;48.784;9.190;2023-03-03T05:20:54;33.17;;;18.60;;
10963;SDS011;5534;48.784;9.190;2023-03-03T05:23:20;38.43;;;20.47;;
10963;SDS011;5534;48.784;9.190;2023-03-03T05:25:46;38.40;;;20.07;;
10963;SDS011;5534;48.784;9.190;2023-03-03T05:28:12;31.00;;;18.43;;
10963;SDS011;5534;48.784;9.190;2023-03-03T05:30:39;32.53;;;19.07;;
10963;SDS011;5534;48.784;9.190;2023-03-03T05:33:05;37.93;;;20.00;;
10963;SDS011;5534;48.784;9.190;2023-03-03T05:35:31;34.90;;;18.43;;
10963;SDS011;5534;48.784;9.190;2023-03-03T05:38:00;36.27;;;20.47;;
10963;SDS011;5534;48.784;9.190;2023-03-03T05:40:27;34.53;;;19.43;;
10963;SDS011;5534;48.784;9.190;2023-03-03T05:42:53;35.60;;;19.00;;
10963;SDS011;5534;48.784;9.190;2023-03-03T05:45:19;32.43;;;18.97;;
10963;SDS011;5534;48.784;9.190;2023-03-03T05:47:46;33.60;;;18.77;;
10963;SDS011;5534;48.784;9.190;2023-03-03T05:50:12;37.90;;;18.93;;
10963;SDS011;5534;48.784;9.190;2023-03-03T05:52:38;38.60;;;19.03;;
10963;SDS011;5534;48.784;9.190;2023-03-03T05:55:04;33.97;;;19.57;;
10963;SDS011;5534;48.784;9.190;2023-03-03T05:57:31;36.07;;;17.77;;
10963;SDS011;5534;48.784;9.190;2023-03-03T05:59:56;36.93;;;19.27;;
10963;SDS011;5534;48.784;9.190;2023-03-03T06:02:22;32.73;;;18.10;;
10963;SDS011;5534;48.784;9.190;2023-03-03T06:04:48;29.13;;;16.70;;
10963;SDS011;5534;48.784;9.190;2023-03-03T06:07:14;29.87;;;16.83;;
10963;SDS011;5534;48.784;9.190;2023-03-03T06:09:39;33.50;;;16.73;;
10963;SDS011;5534;48.784;9.190;2023-03-03T06:12:05;30.60;;;16.97;;
10963;SDS011;5534;48.784;9.190;2023-03-03T06:14:31;31.70;;;16.50;;
10963;SDS011;5534;48.784;9.190;2023-03-03T06:16:57;27.87;;;15.03;;
10963;SDS011;5534;48.784;9.190;2023-03-03T06:19:24;31.90;;;16.80;;
10963;SDS011;5534;48.784;9.190;2023-03-03T06:21:50;30.47;;;16.93;;
10963;SDS011;5534;48.784;9.190;2023-03-03T06:24:16;28.90;;;16.43;;
10963;SDS011;5534;48.784;9.190;2023-03-03T06:26:41;27.40;;;15.37;;
10963;SDS011;5534;48.784;9.190;2023-03-03T06:29:07;34.87;;;16.37;;
10963;SDS011;5534;48.784;9.190;2023-03-03T06:31:33;29.37;;;15.67;;
10963;SDS011;5534;48.784;9.190;2023-03-03T06:33:59;27.17;;;15.43;;
10963;SDS011;5534;48.784;9.190;2023-03-03T06:36:25;25.77;;;15.00;;
10963;SDS011;5534;48.784;9.190;2023-03-03T06:38:51;32.67;;;16.20;;
10963;SDS011;5534;48.784;9.190;2023-03-03T06:41:17;33.63;;;16.73;;
10963;SDS011;5534;48.784;9.190;2023-03-03T06:43:42;29.33;;;16.27;;
10963;SDS011;5534;48.784;9.190;2023-03-03T06:46:08;27.53;;;15.53;;
10963;SDS011;5534;48.784;9.190;2023-03-03T06:48:34;24.87;;;15.37;;
10963;SDS011;5534;48.784;9.190;2023-03-03T06:51:00;27.50;;;15.43;;
10963;SDS011;5534;48.784;9.190;2023-03-03T06:53:27;31.17;;;16.27;;
10963;SDS011;5534;48.784;9.190;2023-03-03T06:55:57;31.93;;;14.70;;
10963;SDS011;5534;48.784;9.190;2023-03-03T06:58:24;26.87;;;15.13;;
10963;SDS011;5534;48.784;9.190;2023-03-03T07:00:54;28.23;;;15.37;;
10963;SDS011;5534;48.784;9.190;2023-03-03T07:03:23;25.20;;;15.73;;
10963;SDS011;5534;48.784;9.190;2023-03-03T07:05:51;32.23;;;17.63;;
10963;SDS011;5534;48.784;9.190;2023-03-03T07:08:18;29.73;;;16.37;;
10963;SDS011;5534;48.784;9.190;2023-03-03T07:10:46;27.63;;;16.20;;
10963;SDS011;5534;48.784;9.190;2023-03-03T07:13:18;24.53;;;14.77;;
10963;SDS011;5534;48.784;9.190;2023-03-03T07:15:52;25.83;;;14.67;;
10963;SDS011;5534;48.784;9.190;2023-03-03T07:18:43;30.60;;;15.93;;
10963;SDS011;5534;48.784;9.190;2023-03-03T07:21:22;27.90;;;15.47;;
10963;SDS011;5534;48.784;9.190;2023-03-03T07:23:51;29.33;;;16.43;;
10963;SDS011;5534;48.784;9.190;2023-03-03T07:26:25;34.57;;;16.77;;
10963;SDS011;5534;48.784;9.190;2023-03-03T07:28:54;25.77;;;15.13;;
10963;SDS011;5534;48.784;9.190;2023-03-03T07:33:56;29.30;;;15.00;;
10963;SDS011;5534;48.784;9.190;2023-03-03T07:36:28;28.03;;;15.13;;
10963;SDS011;5534;48.784;9.190;2023-03-03T07:38:59;26.00;;;15.07;;
10963;SDS011;5534;48.784;9.190;2023-03-03T07:41:27;26.33;;;14.83;;
10963;SDS011;5534;48.784;9.190;2023-03-03T07:43:58;29.73;;;14.90;;
10963;SDS011;5534;48.784;9.190;2023-03-03T07:46:29;27.70;;;15.57;;
10963;SDS011;5534;48.784;9.190;2023-03-03T07:48:59;28.63;;;14.77;;
10963;SDS011;5534;48.784;9.190;2023-03-03T07:51:27;23.17;;;13.40;;
10963;SDS011;5534;48.784;9.190;2023-03-03T07:56:50;33.60;;;16.13;;
10963;SDS011;5534;48.784;9.190;2023-03-03T07:59:21;26.13;;;14.97;;
10963;SDS011;5534;48.784;9.190;2023-03-03T08:01:52;28.50;;;14.83;;
10963;SDS011;5534;48.784;9.190;2023-03-03T08:04:22;25.60;;;14.57;;
10963;SDS011;5534;48.784;9.190;2023-03-03T08:07:10;27.77;;;15.20;;
10963;SDS011;5534;48.784;9.190;2023-03-03T08:09:42;26.87;;;14.47;;
10963;SDS011;5534;48.784;9.190;2023-03-03T08:14:40;29.47;;;14.90;;
10963;SDS011;5534;48.784;9.190;2023-03-03T08:17:11;29.03;;;14.57;;
10963;SDS011;5534;48.784;9.190;2023-03-03T08:19:43;25.53;;;14.47;;
10963;SDS011;5534;48.784;9.190;2023-03-03T08:22:30;27.00;;;14.87;;
10963;SDS011;5534;48.784;9.190;2023-03-03T08:24:59;29.13;;;14.40;;
10963;SDS011;5534;48.784;9.190;2023-03-03T08:27:25;27.87;;;14.63;;
10963;SDS011;5534;48.784;9.190;2023-03-03T08:29:51;25.40;;;14.27;;
10963;SDS011;5534;48.784;9.190;2023-03-03T08:32:17;28.80;;;15.40;;
10963;SDS011;5534;48.784;9.190;2023-03-03T08:34:43;25.27;;;14.87;;
10963;SDS011;5534;48.784;9.190;2023-03-03T08:37:09;28.43;;;15.80;;
10963;SDS011;5534;48.784;9.190;2023-03-03T08:39:36;23.67;;;13.70;;
10963;SDS011;5534;48.784;9.190;2023-03-03T08:42:02;27.87;;;14.97;;
10963;SDS011;5534;48.784;9.190;2023-03-03T08:44:27;30.90;;;14.77;;
10963;SDS011;5534;48.784;9.190;2023-03-03T08:46:54;29.07;;;15.10;;
10963;SDS011;5534;48.784;9.190;2023-03-03T08:49:20;28.17;;;15.37;;
10963;SDS011;5534;48.784;9.190;2023-03-03T08:51:45;31.73;;;15.77;;
10963;SDS011;5534;48.784;9.190;2023-03-03T08:54:11;25.87;;;15.17;;
10963;SDS011;5534;48.784;9.190;2023-03-03T08:56:37;28.33;;;15.20;;
10963;SDS011;5534;48.784;9.190;2023-03-03T08:59:03;28.70;;;16.00;;
10963;SDS011;5534;48.784;9.190;2023-03-03T09:01:30;25.40;;;15.73;;
10963;SDS011;5534;48.784;9.190;2023-03-03T09:03:56;27.77;;;15.60;;
10963;SDS011;5534;48.784;9.190;2023-03-03T09:06:22;25.77;;;15.27;;
10963;SDS011;5534;48.784;9.190;2023-03-03T09:08:48;27.63;;;15.43;;
10963;SDS011;5534;48.784;9.190;2023-03-03T09:11:15;28.13;;;15.87;;
10963;SDS011;5534;48.784;9.190;2023-03-03T09:13:48;26.17;;;15.57;;
10963;SDS011;5534;48.784;9.190;2023-03-03T09:16:17;30.07;;;15.97;;
10963;SDS011;5534;48.784;9.190;2023-03-03T09:18:45;29.20;;;15.27;;
10963;SDS011;5534;48.784;9.190;2023-03-03T09:21:21;25.17;;;14.13;;
10963;SDS011;5534;48.784;9.190;2023-03-03T09:23:55;25.87;;;15.17;;
10963;SDS011;5534;48.784;9.190;2023-03-03T09:31:49;24.90;;;14.93;;
10963;SDS011;5534;48.784;9.190;2023-03-03T09:34:22;22.30;;;13.50;;
10963;SDS011;5534;48.784;9.190;2023-03-03T09:39:57;23.03;;;13.97;;
10963;SDS011;5534;48.784;9.190;2023-03-03T09:48:22;32.73;;;17.63;;
10963;SDS011;5534;48.784;9.190;2023-03-03T10:02:13;26.13;;;14.33;;
10963;SDS011;5534;48.784;9.190;2023-03-03T10:07:38;26.00;;;14.80;;
10963;SDS011;5534;48.784;9.190;2023-03-03T10:10:52;24.40;;;13.87;;
10963;SDS011;5534;48.784;9.190;2023-03-03T10:19:00;23.60;;;14.57;;
10963;SDS011;5534;48.784;9.190;2023-03-03T10:21:50;23.80;;;14.20;;
10963;SDS011;5534;48.784;9.190;2023-03-03T10:24:51;23.37;;;14.80;;
10963;SDS011;5534;48.784;9.190;2023-03-03T10:27:33;25.10;;;15.47;;
10963;SDS011;5534;48.784;9.190;2023-03-03T10:33:04;23.80;;;13.83;;
10963;SDS011;5534;48.784;9.190;2023-03-03T10:50:00;25.57;;;15.50;;
10963;SDS011;5534;48.784;9.190;2023-03-03T11:06:47;24.07;;;14.40;;
10963;SDS011;5534;48.784;9.190;2023-03-03T11:12:50;23.50;;;14.77;;
10963;SDS011;5534;48.784;9.190;2023-03-03T11:21:11;23.90;;;15.30;;
10963;SDS011;5534;48.784;9.190;2023-03-03T11:24:22;26.33;;;16.40;;
10963;SDS011;5534;48.784;9.190;2023-03-03T11:32:20;25.87;;;15.63;;
10963;SDS011;5534;48.784;9.190;2023-03-03T11:35:24;24.00;;;14.40;;
10963;SDS011;5534;48.784;9.190;2023-03-03T11:38:57;28.83;;;16.70;;
10963;SDS011;5534;48.784;9.190;2023-03-03T11:41:16;28.33;;;16.77;;
10963;SDS011;5534;48.784;9.190;2023-03-03T11:44:34;24.77;;;15.67;;
10963;SDS011;5534;48.784;9.190;2023-03-03T11:46:53;22.83;;;14.10;;
10963;SDS011;5534;48.784;9.190;2023-03-03T11:49:42;26.50;;;15.17;;
10963;SDS011;5534;48.784;9.190;2023-03-03T11:52:16;24.67;;;15.13;;
10963;SDS011;5534;48.784;9.190;2023-03-03T11:57:51;25.13;;;14.50;;
10963;SDS011;5534;48.784;9.190;2023-03-03T12:11:09;24.40;;;14.47;;
10963;SDS011;5534;48.784;9.190;2023-03-03T12:39:02;23.47;;;13.93;;
10963;SDS011;5534;48.784;9.190;2023-03-03T12:47:08;23.37;;;14.50;;
10963;SDS011;5534;48.784;9.190;2023-03-03T12:50:02;20.67;;;13.43;;
10963;SDS011;5534;48.784;9.190;2023-03-03T12:55:14;19.23;;;13.27;;
10963;SDS011;5534;48.784;9.190;2023-03-03T13:00:42;21.90;;;12.87;;
10963;SDS011;5534;48.784;9.190;2023-03-03T13:06:16;22.80;;;13.97;;
10963;SDS011;5534;48.784;9.190;2023-03-03T13:11:45;22.00;;;13.03;;
10963;SDS011;5534;48.784;9.190;2023-03-03T13:19:48;23.20;;;14.23;;
10963;SDS011;5534;48.784;9.190;2023-03-03T13:22:30;24.20;;;15.20;;
10963;SDS011;5534;48.784;9.190;2023-03-03T13:25:21;21.83;;;13.70;;
10963;SDS011;5534;48.784;9.190;2023-03-03T13:28:04;22.90;;;14.13;;
10963;SDS011;5534;48.784;9.190;2023-03-03T13:30:37;21.47;;;14.20;;
10963;SDS011;5534;48.784;9.190;2023-03-03T13:35:48;21.57;;;13.33;;
10963;SDS011;5534;48.784;9.190;2023-03-03T13:38:23;22.03;;;14.27;;
10963;SDS011;5534;48.784;9.190;2023-03-03T13:40:53;26.53;;;14.57;;
10963;SDS011;5534;48.784;9.190;2023-03-03T13:43:25;21.43;;;13.43;;
10963;SDS011;5534;48.784;9.190;2023-03-03T13:52:26;19.17;;;12.87;;
10963;SDS011;5534;48.784;9.190;2023-03-03T14:09:53;26.47;;;15.00;;
10963;SDS011;5534;48.784;9.190;2023-03-03T14:12:28;22.53;;;13.60;;
10963;SDS011;5534;48.784;9.190;2023-03-03T14:15:08;25.57;;;13.27;;
10963;SDS011;5534;48.784;9.190;2023-03-03T14:20:34;23.47;;;14.90;;
10963;SDS011;5534;48.784;9.190;2023-03-03T14:23:09;21.00;;;14.23;;
10963;SDS011;5534;48.784;9.190;2023-03-03T14:28:27;23.73;;;14.33;;
10963;SDS011;5534;48.784;9.190;2023-03-03T14:31:08;23.60;;;14.23;;
10963;SDS011;5534;48.784;9.190;2023-03-03T14:34:00;24.70;;;14.90;;
10963;SDS011;5534;48.784;9.190;2023-03-03T14:36:35;22.17;;;14.13;;
10963;SDS011;5534;48.784;9.190;2023-03-03T14:39:24;20.33;;;13.23;;
10963;SDS011;5534;48.784;9.190;2023-03-03T14:41:52;21.93;;;14.10;;
10963;SDS011;5534;48.784;9.190;2023-03-03T14:47:03;20.40;;;13.73;;
10963;SDS011;5534;48.784;9.190;2023-03-03T14:49:37;23.80;;;15.00;;
10963;SDS011;5534;48.784;9.190;2023-03-03T14:54:40;24.47;;;14.13;;
10963;SDS011;5534;48.784;9.190;2023-03-03T14:57:11;22.87;;;13.73;;
10963;SDS011;5534;48.784;9.190;2023-03-03T14:59:54;23.90;;;13.43;;
10963;SDS011;5534;48.784;9.190;2023-03-03T15:02:25;21.17;;;12.97;;
10963;SDS011;5534;48.784;9.190;2023-03-03T15:05:38;22.00;;;13.57;;
10963;SDS011;5534;48.784;9.190;2023-03-03T15:07:57;25.37;;;14.63;;
10963;SDS011;5534;48.784;9.190;2023-03-03T15:10:34;27.57;;;15.20;;
10963;SDS011;5534;48.784;9.190;2023-03-03T15:13:36;25.20;;;15.43;;
10963;SDS011;5534;48.784;9.190;2023-03-03T15:18:24;28.67;;;15.70;;
10963;SDS011;5534;48.784;9.190;2023-03-03T15:29:22;25.63;;;15.30;;
10963;SDS011;5534;48.784;9.190;2023-03-03T15:32:04;25.60;;;14.53;;
10963;SDS011;5534;48.784;9.190;2023-03-03T15:45:20;26.23;;;15.67;;
10963;SDS011;5534;48.784;9.190;2023-03-03T15:50:52;26.30;;;15.73;;
10963;SDS011;5534;48.784;9.190;2023-03-03T16:01:44;23.20;;;14.37;;
10963;SDS011;5534;48.784;9.190;2023-03-03T16:04:25;26.30;;;13.87;;
10963;SDS011;5534;48.784;9.190;2023-03-03T16:07:03;23.80;;;15.17;;
10963;SDS011;5534;48.784;9.190;2023-03-03T16:09:39;24.97;;;15.77;;
10963;SDS011;5534;48.784;9.190;2023-03-03T16:12:24;26.73;;;16.17;;
10963;SDS011;5534;48.784;9.190;2023-03-03T16:21:45;27.27;;;15.18;;
10963;SDS011;5534;48.784;9.190;2023-03-03T16:27:28;23.30;;;14.87;;
10963;SDS011;5534;48.784;9.190;2023-03-03T16:35:42;27.93;;;14.53;;
10963;SDS011;5534;48.784;9.190;2023-03-03T16:38:19;24.50;;;15.27;;
10963;SDS011;5534;48.784;9.190;2023-03-03T16:41:03;28.37;;;15.23;;
10963;SDS011;5534;48.784;9.190;2023-03-03T16:46:45;29.87;;;15.20;;
10963;SDS011;5534;48.784;9.190;2023-03-03T16:54:37;29.93;;;15.77;;
10963;SDS011;5534;48.784;9.190;2023-03-03T16:57:07;26.13;;;15.33;;
10963;SDS011;5534;48.784;9.190;2023-03-03T17:05:52;22.60;;;14.97;;
10963;SDS011;5534;48.784;9.190;2023-03-03T17:11:26;28.67;;;15.83;;
10963;SDS011;5534;48.784;9.190;2023-03-03T17:22:17;25.00;;;14.77;;
10963;SDS011;5534;48.784;9.190;2023-03-03T17:24:56;22.73;;;14.57;;
10963;SDS011;5534;48.784;9.190;2023-03-03T17:35:42;26.60;;;14.90;;
10963;SDS011;5534;48.784;9.190;2023-03-03T17:44:27;28.80;;;15.27;;
10963;SDS011;5534;48.784;9.190;2023-03-03T17:47:10;25.57;;;15.00;;
10963;SDS011;5534;48.784;9.190;2023-03-03T17:50:00;26.87;;;15.03;;
10963;SDS011;5534;48.784;9.190;2023-03-03T17:52:48;27.50;;;14.83;;
10963;SDS011;5534;48.784;9.190;2023-03-03T18:03:55;30.07;;;16.83;;
10963;SDS011;5534;48.784;9.190;2023-03-03T18:12:05;27.43;;;15.93;;
10963;SDS011;5534;48.784;9.190;2023-03-03T18:14:52;27.23;;;16.40;;
10963;SDS011;5534;48.784;9.190;2023-03-03T18:17:35;27.53;;;15.80;;
10963;SDS011;5534;48.784;9.190;2023-03-03T18:23:28;29.00;;;16.53;;
10963;SDS011;5534;48.784;9.190;2023-03-03T18:34:30;27.27;;;15.73;;
10963;SDS011;5534;48.784;9.190;2023-03-03T18:37:07;30.03;;;17.20;;
10963;SDS011;5534;48.784;9.190;2023-03-03T18:42:40;27.20;;;16.60;;
10963;SDS011;5534;48.784;9.190;2023-03-03T18:50:36;34.77;;;17.17;;
10963;SDS011;5534;48.784;9.190;2023-03-03T18:55:41;29.87;;;17.47;;
10963;SDS011;5534;48.784;9.190;2023-03-03T19:00:44;31.13;;;17.70;;
10963;SDS011;5534;48.784;9.190;2023-03-03T19:03:30;27.43;;;16.77;;
10963;SDS011;5534;48.784;9.190;2023-03-03T19:05:59;31.67;;;18.10;;
10963;SDS011;5534;48.784;9.190;2023-03-03T19:16:45;27.90;;;17.03;;
10963;SDS011;5534;48.784;9.190;2023-03-03T19:19:16;32.03;;;18.43;;
10963;SDS011;5534;48.784;9.190;2023-03-03T19:21:49;30.20;;;17.50;;
10963;SDS011;5534;48.784;9.190;2023-03-03T19:24:35;28.80;;;15.97;;
10963;SDS011;5534;48.784;9.190;2023-03-03T19:27:12;28.70;;;16.37;;
10963;SDS011;5534;48.784;9.190;2023-03-03T19:30:10;30.80;;;17.47;;
10963;SDS011;5534;48.784;9.190;2023-03-03T19:32:59;29.90;;;17.20;;
10963;SDS011;5534;48.784;9.190;2023-03-03T19:36:26;30.67;;;18.40;;
10963;SDS011;5534;48.784;9.190;2023-03-03T19:46:30;27.30;;;16.03;;
10963;SDS011;5534;48.784;9.190;2023-03-03T19:49:14;28.60;;;16.83;;
10963;SDS011;5534;48.784;9.190;2023-03-03T19:57:04;32.07;;;16.47;;
10963;SDS011;5534;48.784;9.190;2023-03-03T19:59:55;29.40;;;15.60;;
10963;SDS011;5534;48.784;9.190;2023-03-03T20:02:39;28.90;;;16.13;;
10963;SDS011;5534;48.784;9.190;2023-03-03T20:11:06;25.23;;;15.50;;
10963;SDS011;5534;48.784;9.190;2023-03-03T20:33:06;27.07;;;14.97;;
10963;SDS011;5534;48.784;9.190;2023-03-03T20:44:34;25.97;;;15.23;;
10963;SDS011;5534;48.784;9.190;2023-03-03T20:52:58;30.27;;;16.53;;
10963;SDS011;5534;48.784;9.190;2023-03-03T21:01:23;35.73;;;16.80;;
10963;SDS011;5534;48.784;9.190;2023-03-03T21:04:15;29.63;;;15.97;;
10963;SDS011;5534;48.784;9.190;2023-03-03T21:06:42;28.97;;;16.30;;
10963;SDS011;5534;48.784;9.190;2023-03-03T21:09:17;32.80;;;17.27;;
10963;SDS011;5534;48.784;9.190;2023-03-03T21:11:49;33.40;;;16.43;;
10963;SDS011;5534;48.784;9.190;2023-03-03T21:14:19;25.10;;;16.10;;
10963;SDS011;5534;48.784;9.190;2023-03-03T21:16:53;31.63;;;17.23;;
10963;SDS011;5534;48.784;9.190;2023-03-03T21:19:31;31.43;;;17.50;;
10963;SDS011;5534;48.784;9.190;2023-03-03T21:21:58;32.20;;;18.37;;
10963;SDS011;5534;48.784;9.190;2023-03-03T21:27:30;30.10;;;16.33;;
10963;SDS011;5534;48.784;9.190;2023-03-03T21:30:09;28.23;;;15.80;;
10963;SDS011;5534;48.784;9.190;2023-03-03T21:32:42;28.37;;;16.03;;
10963;SDS011;5534;48.784;9.190;2023-03-03T21:35:13;29.93;;;15.77;;
10963;SDS011;5534;48.784;9.190;2023-03-03T21:40:21;27.93;;;15.40;;
10963;SDS011;5534;48.784;9.190;2023-03-03T21:42:50;28.87;;;17.17;;
10963;SDS011;5534;48.784;9.190;2023-03-03T21:45:18;29.47;;;15.70;;
10963;SDS011;5534;48.784;9.190;2023-03-03T21:47:45;29.50;;;17.53;;
10963;SDS011;5534;48.784;9.190;2023-03-03T21:50:11;28.80;;;14.97;;
10963;SDS011;5534;48.784;9.190;2023-03-03T21:52:38;27.40;;;15.30;;
10963;SDS011;5534;48.784;9.190;2023-03-03T21:55:04;28.57;;;16.47;;
10963;SDS011;5534;48.784;9.190;2023-03-03T21:57:30;30.83;;;16.23;;
10963;SDS011;5534;48.784;9.190;2023-03-03T21:59:57;31.07;;;15.47;;